Search for airport 
image banner adimage banner adimage banner ad
image banner ad

KPEA - Pella Muni

Located in Pella, United States

ICAO - PEA, IATA -

Data provided by Airmate  

General information

Coordinates: N41°24'4" W92°56'45"
Elevation is 885 feet MSL.
Magnetic variation is 02° East
View others Airports in Iowa

Operational data

Special qualification required
Current time UTC:
Current local time:
Weather
METAR: KPEA 181835Z AUTO 17009KT 10SM 28/20 A2983 RMK AO2 T02820201
View NOTAMs / SUP AIP / TFR affecting this airport [VIEW]
Communications frequencies: [VIEW]

Runways:

RWY identifierQFULength (ft)Width (ft)SurfaceLDA (ft)
16167°540375CONC5000
34347°540375CONC5000

Airport contact information

Address: Pella United States

Other aviation service providers

Flight schools

Classic Aviation, Inc.

Classic Aviation, Inc.

Satellite view of KPEA